Terminal Aerodrome Forecast
Issued by NWS

Home | Current Version | Previous Version | Graphics & Text | Print | Product List | Glossary On
Versions: 1 2 3 4 5 6 7 8 9 10 11 12 13 14 15 16 17 18 19 20 21 22 23
000
FTUS43 KGRB 231600 AAA
TAFATW
TAF AMD
KATW 231620Z 2316/2412 19008G18KT P6SM BKN050
     FM231900 19008G16KT 6SM -SHRA BKN022 OVC040
     FM232200 21007KT P6SM OVC012
     FM240100 24004KT 5SM BR OVC010
     FM240600 26004KT 6SM BR SCT003
     FM240800 VRB03KT 3/4SM BR BKN003=

USA.gov is the U.S. government's official web portal to all federal, state and local government web resources and services.